createdAt,value
2023-05-22T00:01:42.868Z,99.40
2023-05-22T00:04:10.826Z,99.20
2023-05-22T00:06:38.016Z,99.30
2023-05-22T00:09:04.858Z,99.40
2023-05-22T00:11:31.601Z,99.50
2023-05-22T00:13:58.410Z,99.60
2023-05-22T00:16:25.188Z,99.70
2023-05-22T00:18:51.978Z,99.90
2023-05-22T00:21:19.936Z,99.80
2023-05-22T00:23:46.780Z,99.90
2023-05-22T00:26:13.484Z,99.90
2023-05-22T00:28:40.268Z,99.90
2023-05-22T00:31:08.350Z,99.90
2023-05-22T00:33:35.429Z,99.90
2023-05-22T00:36:02.400Z,99.90
2023-05-22T00:38:29.789Z,99.90
2023-05-22T00:40:56.514Z,99.90
2023-05-22T00:43:23.370Z,99.90
2023-05-22T00:45:50.114Z,99.90
2023-05-22T00:48:17.159Z,99.90
2023-05-22T00:50:43.899Z,99.90
2023-05-22T00:53:10.808Z,99.90
2023-05-22T00:55:37.539Z,99.90
2023-05-22T00:58:07.674Z,99.90
2023-05-22T01:00:35.166Z,99.90
2023-05-22T01:03:03.044Z,99.90
2023-05-22T01:05:29.913Z,99.90
2023-05-22T01:07:57.251Z,99.90
2023-05-22T01:10:24.057Z,99.90
2023-05-22T01:12:50.806Z,99.90
2023-05-22T01:15:17.866Z,99.90
2023-05-22T01:17:46.403Z,99.90
2023-05-22T01:20:14.411Z,99.90
2023-05-22T01:22:42.596Z,99.90
2023-05-22T01:25:09.586Z,99.90
2023-05-22T01:27:36.363Z,99.90
2023-05-22T01:30:04.117Z,99.90
2023-05-22T01:32:31.456Z,99.90
2023-05-22T01:34:58.403Z,99.90
2023-05-22T01:37:25.195Z,99.90
2023-05-22T01:39:52.509Z,99.90
2023-05-22T01:42:19.381Z,99.90
2023-05-22T01:44:46.603Z,99.90
2023-05-22T01:47:13.489Z,99.90
2023-05-22T01:49:40.715Z,99.90
2023-05-22T01:52:10.025Z,99.90
2023-05-22T01:54:36.918Z,99.90
2023-05-22T01:57:03.674Z,99.90
2023-05-22T01:59:30.987Z,99.90
2023-05-22T02:01:58.450Z,99.90
2023-05-22T02:04:25.204Z,99.90
2023-05-22T02:06:51.907Z,99.90
2023-05-22T02:09:18.729Z,99.90
2023-05-22T02:11:45.552Z,99.90
2023-05-22T02:14:13.461Z,99.90
2023-05-22T02:16:40.237Z,99.90
2023-05-22T02:19:07.832Z,99.90
2023-05-22T02:21:35.432Z,99.90
2023-05-22T02:24:02.220Z,99.90
2023-05-22T02:26:28.998Z,99.90
2023-05-22T02:28:55.920Z,99.90
2023-05-22T02:31:22.877Z,99.90
2023-05-22T02:33:49.744Z,99.90
2023-05-22T02:36:16.509Z,99.90
2023-05-22T02:38:47.054Z,99.90
2023-05-22T02:41:13.914Z,99.90
2023-05-22T02:43:40.793Z,99.90
2023-05-22T02:46:07.649Z,99.90
2023-05-22T02:48:34.426Z,99.90
2023-05-22T02:51:01.519Z,99.90
2023-05-22T02:53:28.253Z,99.90
2023-05-22T02:55:58.894Z,99.90
2023-05-22T02:58:25.808Z,99.90
2023-05-22T03:00:53.718Z,99.90
2023-05-22T03:03:20.720Z,99.90
2023-05-22T03:05:47.571Z,99.90
2023-05-22T03:08:16.089Z,99.90
2023-05-22T03:10:42.884Z,99.90
2023-05-22T03:13:09.661Z,99.90
2023-05-22T03:15:36.413Z,99.90
2023-05-22T03:18:11.502Z,99.90
2023-05-22T03:20:39.762Z,99.90
2023-05-22T03:23:06.922Z,99.90
2023-05-22T03:25:33.845Z,99.90
2023-05-22T03:28:01.043Z,99.90
2023-05-22T03:30:31.739Z,99.90
2023-05-22T03:33:14.338Z,99.90
2023-05-22T03:35:43.296Z,99.90
2023-05-22T03:38:10.781Z,99.90
2023-05-22T03:40:37.910Z,99.90
2023-05-22T03:43:04.966Z,99.90
2023-05-22T03:45:31.793Z,99.90
2023-05-22T03:47:59.013Z,99.90
2023-05-22T03:50:25.870Z,99.90
2023-05-22T03:52:52.566Z,99.90
2023-05-22T03:55:19.401Z,99.90
2023-05-22T03:57:46.554Z,99.90
2023-05-22T04:00:13.729Z,99.90
2023-05-22T04:02:45.002Z,99.90
2023-05-22T04:05:12.222Z,99.90
2023-05-22T04:07:39.105Z,99.90
2023-05-22T04:10:06.481Z,99.90
2023-05-22T04:12:33.277Z,99.90
2023-05-22T04:15:00.086Z,99.90
2023-05-22T04:17:26.844Z,99.90
2023-05-22T04:19:53.625Z,99.90
2023-05-22T04:22:21.202Z,99.90
2023-05-22T04:24:49.226Z,99.90
2023-05-22T04:27:16.161Z,99.90
2023-05-22T04:29:44.919Z,99.90
2023-05-22T04:32:11.675Z,99.90
2023-05-22T04:34:38.595Z,99.90
2023-05-22T04:37:05.370Z,99.90
2023-05-22T04:39:32.124Z,99.90
2023-05-22T04:41:58.851Z,99.90
2023-05-22T04:44:25.644Z,99.90
2023-05-22T04:46:52.462Z,99.90
2023-05-22T04:49:19.497Z,99.90
2023-05-22T04:51:46.207Z,99.90
2023-05-22T04:54:12.989Z,99.90
2023-05-22T04:56:39.780Z,99.90
2023-05-22T04:59:09.151Z,99.90
2023-05-22T05:01:38.454Z,99.90
2023-05-22T05:04:05.503Z,99.90
2023-05-22T05:06:32.277Z,99.90
2023-05-22T05:08:59.099Z,99.90
2023-05-22T05:11:26.111Z,99.90
2023-05-22T05:13:52.969Z,99.90
2023-05-22T05:16:19.798Z,99.90
2023-05-22T05:18:46.775Z,99.90
2023-05-22T05:21:13.723Z,99.90
2023-05-22T05:23:40.530Z,99.90
2023-05-22T05:26:07.461Z,99.90
2023-05-22T05:28:34.272Z,99.90
2023-05-22T05:31:01.846Z,99.90
2023-05-22T05:33:34.542Z,99.90
2023-05-22T05:36:08.396Z,99.90
2023-05-22T05:38:35.979Z,99.90
2023-05-22T05:41:02.754Z,99.90
2023-05-22T05:43:30.076Z,99.90
2023-05-22T05:46:02.647Z,99.90
2023-05-22T05:48:29.547Z,99.90
2023-05-22T05:50:56.781Z,99.90
2023-05-22T05:53:23.750Z,99.90
2023-05-22T05:55:56.072Z,99.90
2023-05-22T05:58:23.175Z,99.90
2023-05-22T06:01:08.475Z,99.90
2023-05-22T06:03:37.234Z,99.90
2023-05-22T06:06:10.758Z,99.90
2023-05-22T06:09:10.399Z,99.90
2023-05-22T06:11:55.892Z,99.90
2023-05-22T06:14:23.769Z,99.90
2023-05-22T06:16:50.711Z,99.90
2023-05-22T06:19:17.773Z,99.90
2023-05-22T06:21:44.774Z,99.90
2023-05-22T06:24:12.541Z,99.90
2023-05-22T06:26:39.890Z,99.90
2023-05-22T06:29:07.121Z,99.90
2023-05-22T06:31:38.450Z,99.90
2023-05-22T06:34:06.235Z,99.90
2023-05-22T06:36:34.967Z,99.90
2023-05-22T06:39:02.648Z,99.90
2023-05-22T06:41:58.786Z,99.90
2023-05-22T06:44:28.799Z,99.90
2023-05-22T06:46:56.249Z,99.90
2023-05-22T06:49:25.207Z,99.90
2023-05-22T06:51:54.678Z,99.90
2023-05-22T06:54:21.779Z,99.90
2023-05-22T06:56:53.057Z,99.90
2023-05-22T06:59:19.786Z,99.90
2023-05-22T07:02:04.441Z,99.90
2023-05-22T07:05:09.274Z,99.90
2023-05-22T07:07:49.655Z,99.90
2023-05-22T07:10:17.082Z,99.90
2023-05-22T07:12:43.992Z,99.90
2023-05-22T07:15:12.271Z,99.90
2023-05-22T07:17:41.945Z,99.90
2023-05-22T07:20:10.722Z,99.90
2023-05-22T07:22:38.496Z,99.90
2023-05-22T07:25:05.299Z,99.90
2023-05-22T07:27:33.660Z,99.90
2023-05-22T07:30:01.750Z,99.90
2023-05-22T07:32:30.246Z,99.90
2023-05-22T07:34:59.263Z,99.90
2023-05-22T07:37:26.697Z,99.90
2023-05-22T07:39:53.752Z,99.90
2023-05-22T07:42:21.761Z,99.90
2023-05-22T07:44:53.432Z,99.90
2023-05-22T07:47:21.549Z,99.90
2023-05-22T07:49:49.636Z,99.90
2023-05-22T07:52:17.490Z,99.90
2023-05-22T07:54:45.619Z,99.90
2023-05-22T07:57:15.784Z,99.90
2023-05-22T07:59:44.006Z,99.90
2023-05-22T08:02:10.809Z,99.90
2023-05-22T08:04:37.764Z,99.90
2023-05-22T08:07:04.719Z,99.90
2023-05-22T08:09:31.686Z,99.90
2023-05-22T08:11:58.474Z,99.90
2023-05-22T08:14:25.377Z,99.90
2023-05-22T08:16:52.215Z,99.90
2023-05-22T08:19:19.134Z,99.80
2023-05-22T08:21:46.006Z,99.60
2023-05-22T08:24:12.858Z,99.90
2023-05-22T08:26:41.066Z,99.90
2023-05-22T08:29:08.133Z,99.90
2023-05-22T08:31:36.098Z,99.90
2023-05-22T08:34:03.265Z,99.90
2023-05-22T08:36:30.205Z,99.60
2023-05-22T08:38:56.987Z,99.50
2023-05-22T08:41:23.746Z,99.00
2023-05-22T08:43:50.566Z,99.10
2023-05-22T08:46:17.406Z,98.90
2023-05-22T08:48:44.965Z,98.50
2023-05-22T08:51:11.801Z,98.60
2023-05-22T08:53:38.608Z,98.50
2023-05-22T08:56:05.593Z,98.20
2023-05-22T08:58:32.322Z,98.30
2023-05-22T09:00:59.185Z,98.40
2023-05-22T09:03:26.007Z,98.60
2023-05-22T09:05:52.909Z,98.30
2023-05-22T09:08:21.152Z,98.40
2023-05-22T09:10:48.218Z,98.40
2023-05-22T09:13:19.373Z,98.60
2023-05-22T09:15:46.166Z,98.80
2023-05-22T09:18:13.517Z,98.20
2023-05-22T09:20:40.736Z,98.10
2023-05-22T09:23:07.670Z,98.20
2023-05-22T09:25:34.470Z,98.10
2023-05-22T09:28:01.283Z,98.00
2023-05-22T09:30:28.162Z,98.00
2023-05-22T09:32:54.934Z,98.00
2023-05-22T09:35:21.976Z,97.90
2023-05-22T09:37:48.716Z,97.90
2023-05-22T09:40:15.685Z,97.70
2023-05-22T09:42:42.385Z,97.90
2023-05-22T09:45:09.285Z,97.60
2023-05-22T09:47:36.368Z,97.60
2023-05-22T09:50:04.605Z,97.80
2023-05-22T09:52:31.335Z,97.80
2023-05-22T09:54:58.839Z,98.10
2023-05-22T09:57:26.408Z,98.20
2023-05-22T09:59:58.215Z,98.10
2023-05-22T10:02:25.258Z,98.00
2023-05-22T10:04:52.774Z,98.10
2023-05-22T10:07:19.732Z,98.00
2023-05-22T10:09:46.570Z,98.00
2023-05-22T10:12:16.307Z,97.60
2023-05-22T10:14:43.162Z,97.60
2023-05-22T10:17:12.215Z,97.60
2023-05-22T10:19:41.718Z,97.70
2023-05-22T10:22:09.753Z,97.70
2023-05-22T10:24:36.556Z,97.60
2023-05-22T10:27:03.391Z,97.70
2023-05-22T10:29:30.177Z,97.60
2023-05-22T10:31:57.186Z,96.80
2023-05-22T10:34:33.334Z,96.90
2023-05-22T10:37:16.119Z,97.00
2023-05-22T10:39:44.437Z,97.10
2023-05-22T10:42:11.157Z,96.80
2023-05-22T10:44:37.974Z,96.70
2023-05-22T10:47:04.797Z,96.60
2023-05-22T10:49:31.556Z,96.10
2023-05-22T10:51:58.388Z,96.20
2023-05-22T10:54:25.212Z,96.10
2023-05-22T10:56:52.295Z,95.90
2023-05-22T10:59:19.166Z,95.90
2023-05-22T11:01:45.973Z,95.90
2023-05-22T11:04:21.087Z,95.40
2023-05-22T11:06:51.706Z,95.10
2023-05-22T11:09:22.048Z,95.20
2023-05-22T11:11:48.898Z,95.40
2023-05-22T11:14:15.640Z,95.20
2023-05-22T11:16:42.548Z,94.90
2023-05-22T11:19:22.553Z,95.10
2023-05-22T11:21:50.750Z,95.30
2023-05-22T11:24:20.503Z,94.80
2023-05-22T11:26:47.295Z,95.00
2023-05-22T11:29:14.111Z,94.60
2023-05-22T11:31:41.038Z,94.50
2023-05-22T11:34:08.061Z,94.70
2023-05-22T11:36:34.960Z,94.90
2023-05-22T11:39:01.674Z,93.90
2023-05-22T11:41:28.467Z,94.10
2023-05-22T11:43:55.171Z,94.20
2023-05-22T11:46:22.087Z,94.30
2023-05-22T11:48:48.868Z,94.20
2023-05-22T11:51:15.647Z,94.00
2023-05-22T11:53:42.388Z,94.70
2023-05-22T11:56:09.197Z,94.30
2023-05-22T11:58:35.959Z,94.50
2023-05-22T12:01:02.818Z,94.60
2023-05-22T12:03:29.737Z,95.00
2023-05-22T12:05:56.657Z,94.80
2023-05-22T12:08:23.387Z,94.70
2023-05-22T12:10:50.210Z,94.80
2023-05-22T12:13:16.921Z,95.10
2023-05-22T12:15:43.734Z,95.20
2023-05-22T12:18:11.602Z,94.90
2023-05-22T12:20:38.617Z,94.80
2023-05-22T12:23:05.604Z,94.70
2023-05-22T12:25:32.403Z,95.20
2023-05-22T12:27:59.146Z,95.00
2023-05-22T12:30:26.198Z,95.10
2023-05-22T12:32:53.023Z,94.80
2023-05-22T12:35:19.922Z,94.90
2023-05-22T12:37:46.656Z,95.00
2023-05-22T12:40:13.471Z,94.90
2023-05-22T12:42:40.359Z,95.00
2023-05-22T12:45:07.185Z,94.70
2023-05-22T12:47:33.992Z,94.80
2023-05-22T12:50:00.769Z,95.00
2023-05-22T12:52:27.782Z,94.50
2023-05-22T12:54:54.535Z,94.60
2023-05-22T12:57:21.234Z,94.40
2023-05-22T12:59:48.047Z,94.20
2023-05-22T13:02:14.834Z,94.40
2023-05-22T13:04:41.697Z,94.20
2023-05-22T13:07:08.496Z,94.60
2023-05-22T13:09:35.312Z,94.70
2023-05-22T13:12:02.223Z,94.60
2023-05-22T13:14:29.131Z,94.70
2023-05-22T13:16:55.918Z,94.50
2023-05-22T13:19:22.701Z,94.70
2023-05-22T13:21:49.611Z,94.40
2023-05-22T13:24:16.477Z,94.30
2023-05-22T13:26:43.189Z,94.70
2023-05-22T13:29:11.325Z,94.60
2023-05-22T13:31:38.293Z,94.90
2023-05-22T13:34:05.293Z,94.80
2023-05-22T13:36:32.255Z,94.80
2023-05-22T13:38:59.115Z,94.80
2023-05-22T13:41:25.849Z,94.80
2023-05-22T13:43:52.680Z,94.90
2023-05-22T13:46:21.037Z,94.50
2023-05-22T13:48:47.885Z,94.40
2023-05-22T13:51:14.578Z,94.50
2023-05-22T13:53:41.368Z,94.20
2023-05-22T13:56:08.126Z,94.40
2023-05-22T13:58:34.901Z,94.50
2023-05-22T14:01:01.766Z,94.20
2023-05-22T14:03:28.754Z,94.40
2023-05-22T14:05:55.590Z,94.40
2023-05-22T14:08:22.438Z,94.40
2023-05-22T14:10:49.301Z,94.30
2023-05-22T14:13:16.058Z,94.20
2023-05-22T14:15:43.282Z,94.10
2023-05-22T14:18:10.078Z,94.10
2023-05-22T14:20:37.010Z,94.20
2023-05-22T14:23:03.776Z,94.30
2023-05-22T14:25:30.557Z,94.10
2023-05-22T14:27:57.699Z,93.90
2023-05-22T14:30:24.589Z,93.70
2023-05-22T14:32:51.741Z,94.00
2023-05-22T14:35:19.078Z,94.00
2023-05-22T14:37:46.004Z,93.80
2023-05-22T14:40:12.806Z,93.90
2023-05-22T14:42:39.712Z,93.80
2023-05-22T14:45:06.513Z,93.50
2023-05-22T14:47:33.299Z,93.60
2023-05-22T14:50:14.870Z,93.70
2023-05-22T14:52:45.677Z,93.80
2023-05-22T14:55:12.468Z,93.70
2023-05-22T14:57:39.364Z,93.90
2023-05-22T15:00:06.682Z,94.00
2023-05-22T15:02:33.685Z,94.30
2023-05-22T15:05:00.730Z,94.40
2023-05-22T15:07:35.956Z,94.30
2023-05-22T15:10:10.556Z,94.10
2023-05-22T15:12:37.341Z,94.70
2023-05-22T15:15:04.124Z,94.10
2023-05-22T15:17:30.966Z,94.00
2023-05-22T15:19:57.780Z,94.00
2023-05-22T15:22:24.562Z,94.10
2023-05-22T15:24:51.361Z,94.00
2023-05-22T15:27:18.082Z,94.10
2023-05-22T15:29:44.879Z,93.80
2023-05-22T15:32:11.782Z,94.00
2023-05-22T15:34:38.725Z,93.90
2023-05-22T15:37:05.595Z,93.20
2023-05-22T15:39:32.447Z,93.60
2023-05-22T15:42:06.412Z,93.30
2023-05-22T15:44:33.817Z,93.50
2023-05-22T15:47:00.721Z,92.30
2023-05-22T15:49:29.451Z,92.30
2023-05-22T15:51:57.893Z,92.50
2023-05-22T15:54:24.664Z,91.90
2023-05-22T15:56:51.545Z,91.70
2023-05-22T15:59:18.320Z,91.50
2023-05-22T16:01:45.280Z,91.40
2023-05-22T16:04:12.231Z,91.10
2023-05-22T16:06:39.035Z,91.10
2023-05-22T16:09:06.168Z,90.60
2023-05-22T16:11:33.626Z,90.50
2023-05-22T16:14:00.395Z,90.60
2023-05-22T16:16:27.440Z,90.30
2023-05-22T16:18:54.402Z,90.00
2023-05-22T16:21:21.196Z,90.00
2023-05-22T16:23:47.929Z,90.10
2023-05-22T16:26:15.061Z,90.20
2023-05-22T16:28:41.859Z,90.00
2023-05-22T16:31:08.712Z,90.00
2023-05-22T16:33:37.528Z,89.80
2023-05-22T16:36:04.408Z,89.90
2023-05-22T16:38:31.311Z,90.10
2023-05-22T16:40:58.452Z,89.20
2023-05-22T16:43:25.269Z,89.40
2023-05-22T16:45:52.026Z,89.30
2023-05-22T16:48:18.847Z,88.70
2023-05-22T16:50:46.817Z,88.70
2023-05-22T16:53:13.762Z,88.40
2023-05-22T16:55:40.873Z,88.30
2023-05-22T16:58:09.119Z,88.40
2023-05-22T17:00:36.318Z,88.70
2023-05-22T17:03:03.388Z,89.60
2023-05-22T17:05:30.381Z,89.30
2023-05-22T17:07:57.141Z,89.40
2023-05-22T17:10:23.989Z,88.70
2023-05-22T17:12:50.936Z,88.40
2023-05-22T17:15:17.822Z,89.20
2023-05-22T17:17:44.530Z,89.80
2023-05-22T17:20:11.568Z,89.80
2023-05-22T17:22:38.287Z,90.10
2023-05-22T17:25:06.113Z,90.10
2023-05-22T17:27:36.073Z,89.30
2023-05-22T17:30:04.596Z,89.40
2023-05-22T17:32:31.561Z,89.10
2023-05-22T17:34:58.428Z,88.70
2023-05-22T17:37:25.178Z,89.30
2023-05-22T17:39:52.021Z,89.20
2023-05-22T17:42:18.775Z,89.40
2023-05-22T17:44:45.827Z,89.30
2023-05-22T17:47:13.506Z,89.20
2023-05-22T17:49:40.374Z,90.00
2023-05-22T17:52:08.677Z,89.40
2023-05-22T17:54:35.719Z,89.50
2023-05-22T17:57:04.099Z,89.20
2023-05-22T17:59:31.035Z,87.70
2023-05-22T18:01:57.814Z,85.40
2023-05-22T18:04:24.664Z,83.40
2023-05-22T18:06:52.114Z,83.50
2023-05-22T18:09:18.882Z,81.90
2023-05-22T18:11:45.743Z,81.50
2023-05-22T18:14:12.711Z,82.40
2023-05-22T18:16:39.491Z,81.40
2023-05-22T18:19:06.288Z,81.50
2023-05-22T18:21:33.084Z,81.70
2023-05-22T18:23:59.883Z,81.80
2023-05-22T18:26:29.625Z,82.50
2023-05-22T18:28:56.522Z,82.00
2023-05-22T18:31:23.361Z,82.40
2023-05-22T18:33:50.265Z,83.00
2023-05-22T18:36:17.032Z,83.50
2023-05-22T18:38:43.953Z,83.70
2023-05-22T18:41:10.753Z,82.70
2023-05-22T18:43:37.559Z,82.70
2023-05-22T18:46:04.291Z,82.20
2023-05-22T18:48:31.101Z,82.70
2023-05-22T18:50:58.049Z,82.60
2023-05-22T18:53:25.580Z,81.90
2023-05-22T18:55:54.032Z,81.80
2023-05-22T18:58:21.106Z,82.00
2023-05-22T19:00:47.963Z,81.90
2023-05-22T19:03:14.954Z,82.40
2023-05-22T19:05:41.716Z,82.80
2023-05-22T19:08:08.435Z,82.70
2023-05-22T19:10:35.253Z,82.60
2023-05-22T19:13:02.092Z,82.60
2023-05-22T19:15:28.840Z,82.80
2023-05-22T19:17:55.718Z,82.90
2023-05-22T19:20:22.563Z,83.10
2023-05-22T19:22:50.978Z,83.60
2023-05-22T19:25:17.755Z,83.80
2023-05-22T19:27:44.750Z,84.10
2023-05-22T19:30:11.443Z,84.20
2023-05-22T19:32:38.308Z,84.60
2023-05-22T19:35:05.110Z,84.60
2023-05-22T19:37:31.930Z,85.00
2023-05-22T19:39:58.790Z,85.30
2023-05-22T19:42:25.679Z,85.40
2023-05-22T19:44:52.376Z,85.60
2023-05-22T19:47:19.139Z,86.10
2023-05-22T19:49:45.967Z,86.40
2023-05-22T19:52:12.768Z,86.90
2023-05-22T19:54:39.944Z,87.40
2023-05-22T19:57:06.796Z,87.70
2023-05-22T19:59:36.426Z,88.00
2023-05-22T20:02:03.678Z,88.30
2023-05-22T20:04:31.669Z,88.50
2023-05-22T20:06:58.786Z,89.10
2023-05-22T20:09:27.174Z,89.20
2023-05-22T20:11:54.000Z,89.40
2023-05-22T20:14:21.112Z,89.60
2023-05-22T20:16:47.939Z,89.80
2023-05-22T20:19:14.958Z,89.90
2023-05-22T20:21:41.842Z,90.00
2023-05-22T20:24:12.091Z,90.10
2023-05-22T20:26:38.937Z,90.30
2023-05-22T20:29:05.788Z,90.30
2023-05-22T20:31:32.732Z,90.60
2023-05-22T20:34:02.044Z,90.60
2023-05-22T20:36:28.952Z,90.70
2023-05-22T20:38:58.483Z,90.70
2023-05-22T20:41:25.494Z,90.90
2023-05-22T20:43:54.437Z,90.80
2023-05-22T20:46:22.976Z,90.90
2023-05-22T20:48:49.857Z,91.00
2023-05-22T20:51:18.553Z,91.00
2023-05-22T20:53:45.357Z,91.00
2023-05-22T20:56:12.145Z,90.90
2023-05-22T20:58:39.260Z,91.20
2023-05-22T21:01:06.356Z,91.10
2023-05-22T21:03:33.247Z,91.00
2023-05-22T21:06:00.022Z,91.10
2023-05-22T21:08:26.763Z,91.00
2023-05-22T21:10:53.489Z,91.10
2023-05-22T21:13:20.258Z,91.20
2023-05-22T21:15:47.116Z,91.30
2023-05-22T21:18:13.948Z,91.30
2023-05-22T21:20:41.156Z,91.40
2023-05-22T21:23:08.115Z,91.50
2023-05-22T21:25:35.003Z,91.60
2023-05-22T21:28:02.365Z,91.70
2023-05-22T21:30:29.223Z,91.70
2023-05-22T21:32:55.981Z,91.90
2023-05-22T21:35:22.780Z,92.00
2023-05-22T21:37:49.569Z,92.20
2023-05-22T21:40:16.430Z,92.20
2023-05-22T21:42:46.695Z,92.40
2023-05-22T21:45:14.347Z,92.40
2023-05-22T21:47:41.228Z,92.50
2023-05-22T21:50:08.173Z,92.50
2023-05-22T21:52:35.293Z,92.90
2023-05-22T21:55:02.642Z,92.80
2023-05-22T21:57:29.692Z,92.80
2023-05-22T21:59:56.512Z,92.90
2023-05-22T22:02:23.449Z,93.00
2023-05-22T22:04:50.286Z,93.00
2023-05-22T22:07:17.005Z,93.10
2023-05-22T22:09:43.871Z,93.20
2023-05-22T22:12:10.613Z,93.30
2023-05-22T22:14:37.619Z,93.50
2023-05-22T22:17:05.867Z,93.60
2023-05-22T22:19:34.401Z,93.70
2023-05-22T22:22:01.459Z,93.80
2023-05-22T22:24:28.485Z,93.80
2023-05-22T22:26:55.365Z,94.20
2023-05-22T22:29:22.165Z,94.30
2023-05-22T22:31:49.076Z,94.30
2023-05-22T22:34:16.088Z,94.30
2023-05-22T22:36:42.998Z,94.40
2023-05-22T22:39:09.746Z,94.50
2023-05-22T22:41:36.485Z,94.70
2023-05-22T22:44:03.374Z,94.60
2023-05-22T22:46:30.173Z,94.60
2023-05-22T22:48:58.937Z,94.70
2023-05-22T22:51:25.795Z,94.80
2023-05-22T22:53:52.622Z,94.80
2023-05-22T22:56:19.498Z,95.10
2023-05-22T22:58:46.470Z,95.10
2023-05-22T23:01:13.433Z,95.40
2023-05-22T23:03:40.240Z,95.60
2023-05-22T23:06:07.003Z,95.80
2023-05-22T23:08:33.795Z,95.90
2023-05-22T23:11:00.566Z,95.90
2023-05-22T23:13:27.339Z,96.10
2023-05-22T23:15:54.205Z,96.20
2023-05-22T23:18:22.320Z,96.60
2023-05-22T23:20:49.072Z,96.70
2023-05-22T23:23:15.997Z,96.70
2023-05-22T23:25:42.886Z,96.80
2023-05-22T23:28:09.757Z,96.80
2023-05-22T23:30:36.530Z,97.00
2023-05-22T23:33:06.130Z,97.10
2023-05-22T23:35:32.919Z,97.20
2023-05-22T23:37:59.706Z,97.50
2023-05-22T23:40:26.458Z,97.70
2023-05-22T23:42:53.283Z,97.90
2023-05-22T23:45:20.015Z,97.90
